Time;durP1;ratioP1;P1;durP2;ratioP2;P2;SDS_P1;SDS_P2;PMS_P1;PMS_P2;Temp;Humidity;BMP_temperature;BMP_pressure;BME280_temperature;BME280_humidity;BME280_pressure;Samples;Min_cycle;Max_cycle;Signal;HPM_P1;HPM_P2
2024/01/14 00:00:46;;;;;;;;;76.00;52.67;;;;;;;;4959033;28;62016;-72
2024/01/14 00:03:12;;;;;;;;;73.00;48.33;;;;;;;;4960510;28;63542;-72
2024/01/14 00:05:37;;;;;;;;;69.00;50.33;;;;;;;;4979241;28;62065;-72
2024/01/14 00:08:02;;;;;;;;;67.67;47.67;;;;;;;;4978844;28;61755;-72
2024/01/14 00:10:28;;;;;;;;;68.67;47.67;;;;;;;;4994362;28;62053;-73
2024/01/14 00:12:53;;;;;;;;;74.00;51.33;;;;;;;;4999209;28;62822;-72
2024/01/14 00:15:19;;;;;;;;;70.33;47.33;;;;;;;;4999200;28;61873;-73
2024/01/14 00:17:45;;;;;;;;;71.00;49.67;;;;;;;;4991687;27;61996;-73
2024/01/14 00:20:10;;;;;;;;;67.33;50.67;;;;;;;;4979383;28;61889;-73
2024/01/14 00:22:35;;;;;;;;;68.33;47.00;;;;;;;;4977465;28;63546;-72
2024/01/14 00:25:01;;;;;;;;;65.00;43.00;;;;;;;;4980287;28;61916;-72
2024/01/14 00:27:26;;;;;;;;;76.00;50.67;;;;;;;;4999332;28;62162;-72
2024/01/14 00:29:54;;;;;;;;;64.33;45.67;;;;;;;;4999494;28;61755;-72
2024/01/14 00:32:21;;;;;;;;;70.33;46.33;;;;;;;;4998814;28;62643;-72
2024/01/14 00:34:46;;;;;;;;;68.00;42.67;;;;;;;;4997153;27;61937;-72
2024/01/14 00:37:11;;;;;;;;;65.00;47.33;;;;;;;;4998965;28;61811;-72
2024/01/14 00:39:37;;;;;;;;;64.33;43.33;;;;;;;;4998965;27;62008;-73
2024/01/14 00:42:03;;;;;;;;;64.00;45.00;;;;;;;;4998400;28;61956;-72
2024/01/14 00:44:28;;;;;;;;;66.33;49.00;;;;;;;;4999157;27;61907;-72
2024/01/14 00:46:53;;;;;;;;;59.33;45.67;;;;;;;;4999057;27;62407;-73
2024/01/14 00:49:18;;;;;;;;;66.00;43.00;;;;;;;;4999321;28;61894;-72
2024/01/14 00:51:44;;;;;;;;;66.33;48.00;;;;;;;;4998247;27;61919;-72
2024/01/14 00:54:09;;;;;;;;;72.00;50.67;;;;;;;;4997446;28;61924;-73
2024/01/14 00:56:34;;;;;;;;;61.67;46.33;;;;;;;;4985602;28;62114;-72
2024/01/14 00:58:59;;;;;;;;;72.33;48.33;;;;;;;;4979241;28;62123;-72
2024/01/14 01:01:25;;;;;;;;;68.00;46.33;;;;;;;;4978222;28;62289;-72
2024/01/14 01:03:50;;;;;;;;;68.00;48.33;;;;;;;;4977881;28;62387;-72
2024/01/14 01:06:15;;;;;;;;;78.00;55.33;;;;;;;;4977486;28;61868;-72
2024/01/14 01:08:40;;;;;;;;;80.00;53.00;;;;;;;;4979067;28;61935;-73
2024/01/14 01:11:06;;;;;;;;;58.33;43.67;;;;;;;;4977544;28;62004;-72
2024/01/14 01:13:31;;;;;;;;;63.67;43.67;;;;;;;;4979195;28;61939;-72
2024/01/14 01:15:57;;;;;;;;;68.67;46.00;;;;;;;;4978719;28;62140;-72
2024/01/14 01:18:22;;;;;;;;;64.67;45.67;;;;;;;;4979556;28;61908;-72
2024/01/14 01:20:48;;;;;;;;;72.00;46.00;;;;;;;;4977693;28;61896;-72
2024/01/14 01:23:13;;;;;;;;;76.67;51.33;;;;;;;;4980547;28;61721;-72
2024/01/14 01:25:39;;;;;;;;;68.33;42.67;;;;;;;;4982527;28;61924;-73
2024/01/14 01:28:04;;;;;;;;;60.33;45.00;;;;;;;;4982147;28;61851;-72
2024/01/14 01:30:29;;;;;;;;;62.33;46.00;;;;;;;;4981428;28;61717;-72
2024/01/14 01:32:54;;;;;;;;;66.33;47.33;;;;;;;;4981783;28;61893;-73
2024/01/14 01:35:20;;;;;;;;;65.67;50.00;;;;;;;;4961875;28;61704;-72
2024/01/14 01:37:45;;;;;;;;;62.67;47.33;;;;;;;;4962700;28;61653;-72
2024/01/14 01:40:11;;;;;;;;;67.67;46.00;;;;;;;;4960375;28;63670;-72
2024/01/14 01:42:36;;;;;;;;;65.33;49.00;;;;;;;;4962445;28;61673;-72
2024/01/14 01:45:02;;;;;;;;;52.00;43.00;;;;;;;;4960881;28;61700;-72
2024/01/14 01:47:27;;;;;;;;;64.67;48.33;;;;;;;;4969272;28;62268;-72
2024/01/14 01:49:53;;;;;;;;;71.67;46.67;;;;;;;;4999406;27;64917;-73
2024/01/14 01:52:18;;;;;;;;;68.33;51.00;;;;;;;;5000829;27;61735;-72
2024/01/14 01:54:44;;;;;;;;;65.33;46.67;;;;;;;;4986408;27;61751;-73
2024/01/14 01:57:10;;;;;;;;;59.33;42.67;;;;;;;;4981466;28;62023;-72
2024/01/14 01:59:35;;;;;;;;;66.33;46.00;;;;;;;;4982577;28;64793;-72
2024/01/14 02:02:01;;;;;;;;;57.67;43.67;;;;;;;;4981302;28;61964;-72
2024/01/14 02:04:27;;;;;;;;;67.00;48.00;;;;;;;;4988239;27;61936;-72
2024/01/14 02:06:53;;;;;;;;;69.33;44.33;;;;;;;;5000874;28;61897;-72
2024/01/14 02:09:18;;;;;;;;;67.67;45.67;;;;;;;;4996823;28;62345;-72
2024/01/14 02:11:43;;;;;;;;;58.33;43.00;;;;;;;;4980896;28;61929;-73
2024/01/14 02:14:09;;;;;;;;;61.00;45.33;;;;;;;;4981328;28;61678;-72
2024/01/14 02:16:34;;;;;;;;;55.67;36.33;;;;;;;;4979998;28;61968;-72
2024/01/14 02:19:00;;;;;;;;;59.00;45.33;;;;;;;;4978704;28;62023;-72
2024/01/14 02:21:40;;;;;;;;;66.00;46.33;;;;;;;;4979509;28;61983;-72
2024/01/14 02:24:23;;;;;;;;;49.33;38.33;;;;;;;;4981365;28;61845;-72
2024/01/14 02:26:48;;;;;;;;;64.00;44.00;;;;;;;;4981629;28;61818;-73
2024/01/14 02:29:14;;;;;;;;;50.00;43.00;;;;;;;;4980538;28;61814;-73
2024/01/14 02:31:39;;;;;;;;;41.33;32.67;;;;;;;;4981385;28;62254;-72
2024/01/14 02:34:06;;;;;;;;;69.67;50.33;;;;;;;;4980704;28;62013;-73
2024/01/14 02:36:32;;;;;;;;;66.67;49.67;;;;;;;;4980981;28;61956;-72
2024/01/14 02:38:57;;;;;;;;;63.67;44.67;;;;;;;;4980663;28;61849;-73
2024/01/14 02:41:22;;;;;;;;;64.00;43.67;;;;;;;;4980945;28;62115;-72
2024/01/14 02:43:47;;;;;;;;;69.00;42.33;;;;;;;;4981376;28;61703;-73
2024/01/14 02:46:13;;;;;;;;;68.67;48.33;;;;;;;;4981151;28;62124;-72
2024/01/14 02:48:38;;;;;;;;;44.33;29.33;;;;;;;;4980686;28;61805;-72
2024/01/14 02:51:03;;;;;;;;;61.67;43.00;;;;;;;;4979052;28;62035;-73
2024/01/14 02:53:28;;;;;;;;;63.00;36.67;;;;;;;;4980924;28;61964;-72
2024/01/14 02:55:54;;;;;;;;;67.67;47.00;;;;;;;;4979917;28;61847;-72
2024/01/14 02:58:19;;;;;;;;;71.33;45.00;;;;;;;;4978952;28;63857;-72
2024/01/14 03:00:45;;;;;;;;;55.00;43.33;;;;;;;;4980515;28;61944;-72
2024/01/14 03:03:12;;;;;;;;;58.00;47.00;;;;;;;;4980065;28;61722;-72
2024/01/14 03:05:38;;;;;;;;;46.67;37.33;;;;;;;;4978617;28;62151;-72
2024/01/14 03:08:03;;;;;;;;;62.00;44.00;;;;;;;;4977463;28;64801;-72
2024/01/14 03:10:28;;;;;;;;;49.00;40.33;;;;;;;;4965944;28;62080;-72
2024/01/14 03:12:53;;;;;;;;;48.33;34.67;;;;;;;;4960889;28;62368;-73
2024/01/14 03:15:19;;;;;;;;;59.67;44.00;;;;;;;;4962544;28;62441;-72
2024/01/14 03:17:44;;;;;;;;;58.67;38.00;;;;;;;;4980244;28;61820;-72
2024/01/14 03:20:09;;;;;;;;;55.67;39.67;;;;;;;;4978432;28;61743;-72
2024/01/14 03:22:35;;;;;;;;;59.67;46.00;;;;;;;;4980154;28;62522;-73
2024/01/14 03:25:00;;;;;;;;;48.00;40.33;;;;;;;;4980830;28;61805;-72
2024/01/14 03:27:25;;;;;;;;;62.67;45.67;;;;;;;;4979964;28;62047;-72
2024/01/14 03:29:50;;;;;;;;;55.33;42.67;;;;;;;;4973420;28;61874;-72
2024/01/14 03:32:15;;;;;;;;;63.33;43.33;;;;;;;;4961276;28;61976;-73
2024/01/14 03:34:41;;;;;;;;;56.00;43.00;;;;;;;;4960444;28;61740;-72
2024/01/14 03:37:06;;;;;;;;;63.33;46.00;;;;;;;;4960304;28;62899;-72
2024/01/14 03:39:31;;;;;;;;;51.67;42.00;;;;;;;;4959563;28;61774;-72
2024/01/14 03:41:56;;;;;;;;;49.33;40.33;;;;;;;;4960924;28;61898;-72
2024/01/14 03:44:21;;;;;;;;;52.67;40.33;;;;;;;;4961136;28;62194;-72
2024/01/14 03:46:47;;;;;;;;;58.33;37.00;;;;;;;;4959721;28;61968;-73
2024/01/14 03:49:12;;;;;;;;;77.67;48.00;;;;;;;;4971586;28;62146;-72
2024/01/14 03:51:37;;;;;;;;;59.00;39.33;;;;;;;;4999526;28;61721;-72
2024/01/14 03:54:03;;;;;;;;;63.00;43.67;;;;;;;;5000277;27;62185;-72
2024/01/14 03:56:28;;;;;;;;;60.00;45.67;;;;;;;;4999291;27;62742;-72
2024/01/14 03:58:53;;;;;;;;;54.33;41.00;;;;;;;;5000063;27;62107;-72
2024/01/14 04:01:18;;;;;;;;;52.00;40.00;;;;;;;;4999557;27;61906;-72
2024/01/14 04:03:44;;;;;;;;;61.33;37.33;;;;;;;;4999270;27;61754;-72
2024/01/14 04:06:09;;;;;;;;;58.67;40.67;;;;;;;;4998949;28;62757;-72
2024/01/14 04:08:34;;;;;;;;;60.67;37.00;;;;;;;;4999651;27;61885;-73
2024/01/14 04:10:59;;;;;;;;;49.67;40.33;;;;;;;;5061303;28;61691;-72
2024/01/14 04:13:25;;;;;;;;;67.00;44.33;;;;;;;;5083170;28;61653;-72
2024/01/14 04:15:50;;;;;;;;;66.00;49.00;;;;;;;;5080311;28;64674;-72
2024/01/14 04:18:15;;;;;;;;;54.00;38.33;;;;;;;;5012806;28;61948;-72
2024/01/14 04:20:40;;;;;;;;;69.33;35.33;;;;;;;;4977123;28;62369;-73
2024/01/14 04:23:05;;;;;;;;;52.33;40.67;;;;;;;;4979009;28;61991;-72
2024/01/14 04:25:31;;;;;;;;;60.00;41.00;;;;;;;;4979281;28;61798;-72
2024/01/14 04:27:56;;;;;;;;;44.33;38.00;;;;;;;;4979869;28;61690;-72
2024/01/14 04:30:21;;;;;;;;;56.33;42.33;;;;;;;;4968623;28;61998;-73
2024/01/14 04:32:46;;;;;;;;;51.67;39.67;;;;;;;;4959938;28;61878;-72
2024/01/14 04:35:11;;;;;;;;;50.33;32.00;;;;;;;;4959123;28;62847;-72
2024/01/14 04:37:37;;;;;;;;;57.00;33.33;;;;;;;;4960129;28;61749;-72
2024/01/14 04:40:02;;;;;;;;;61.33;45.67;;;;;;;;4977357;28;62389;-72
2024/01/14 04:42:28;;;;;;;;;78.00;46.67;;;;;;;;4999484;28;61969;-72
2024/01/14 04:44:53;;;;;;;;;48.67;37.00;;;;;;;;4998541;27;62745;-72
2024/01/14 04:47:18;;;;;;;;;59.67;37.67;;;;;;;;4995893;27;61824;-72
2024/01/14 04:49:43;;;;;;;;;56.67;40.00;;;;;;;;4978275;28;61857;-72
2024/01/14 04:52:08;;;;;;;;;66.33;46.00;;;;;;;;4977810;28;61829;-72
2024/01/14 04:54:34;;;;;;;;;62.00;38.33;;;;;;;;4978734;28;61865;-72
2024/01/14 04:56:59;;;;;;;;;59.00;41.67;;;;;;;;4962918;28;61967;-72
2024/01/14 04:59:24;;;;;;;;;53.67;46.67;;;;;;;;4961774;28;62785;-72
2024/01/14 05:01:49;;;;;;;;;75.00;48.67;;;;;;;;4969621;28;61878;-72
2024/01/14 05:04:15;;;;;;;;;64.00;47.67;;;;;;;;4981405;28;62006;-72
2024/01/14 05:06:40;;;;;;;;;68.67;40.67;;;;;;;;4980411;28;62144;-72
2024/01/14 05:09:05;;;;;;;;;57.00;42.33;;;;;;;;4982708;28;61822;-72
2024/01/14 05:11:30;;;;;;;;;61.00;46.67;;;;;;;;4982476;28;61953;-71
2024/01/14 05:13:55;;;;;;;;;59.33;45.67;;;;;;;;4981673;28;61805;-72
2024/01/14 05:16:21;;;;;;;;;56.67;45.67;;;;;;;;4969854;28;61786;-72
2024/01/14 05:18:46;;;;;;;;;64.33;44.00;;;;;;;;5063728;27;61924;-72
2024/01/14 05:21:17;;;;;;;;;59.00;45.00;;;;;;;;4980873;28;62112;-72
2024/01/14 05:23:43;;;;;;;;;63.00;43.00;;;;;;;;4981784;28;62946;-72
2024/01/14 05:26:08;;;;;;;;;62.67;48.00;;;;;;;;4981869;28;61901;-72
2024/01/14 05:28:33;;;;;;;;;62.00;37.33;;;;;;;;4982344;28;61715;-71
2024/01/14 05:30:58;;;;;;;;;66.00;40.00;;;;;;;;4981270;28;61802;-71
2024/01/14 05:33:24;;;;;;;;;64.33;48.00;;;;;;;;4981604;28;61945;-72
2024/01/14 05:35:49;;;;;;;;;56.67;41.67;;;;;;;;4981041;28;62113;-72
2024/01/14 05:38:14;;;;;;;;;65.67;46.33;;;;;;;;4980668;28;61805;-72
2024/01/14 05:40:39;;;;;;;;;68.67;46.67;;;;;;;;4980856;28;61937;-72
2024/01/14 05:43:06;;;;;;;;;61.67;44.00;;;;;;;;4980870;28;62930;-72
2024/01/14 05:45:31;;;;;;;;;62.00;46.67;;;;;;;;4981536;28;61837;-72
2024/01/14 05:47:56;;;;;;;;;66.00;38.33;;;;;;;;4981834;28;61852;-72
2024/01/14 05:50:21;;;;;;;;;70.33;45.67;;;;;;;;4981660;28;61713;-71
2024/01/14 05:52:47;;;;;;;;;65.00;44.33;;;;;;;;4980961;28;62253;-71
2024/01/14 05:55:13;;;;;;;;;62.00;43.67;;;;;;;;4980037;28;61841;-72
2024/01/14 05:57:38;;;;;;;;;50.33;42.33;;;;;;;;4980973;28;62169;-72
2024/01/14 06:00:04;;;;;;;;;60.00;47.33;;;;;;;;4979350;28;62218;-72
2024/01/14 06:02:29;;;;;;;;;55.67;43.67;;;;;;;;4979014;28;63430;-72
2024/01/14 06:04:54;;;;;;;;;69.00;50.33;;;;;;;;4979344;28;62026;-72
2024/01/14 06:07:19;;;;;;;;;49.67;43.00;;;;;;;;4979703;28;61902;-72
2024/01/14 06:09:45;;;;;;;;;59.67;42.33;;;;;;;;4980964;28;61742;-72
2024/01/14 06:12:10;;;;;;;;;68.33;45.67;;;;;;;;4979886;28;61740;-72
2024/01/14 06:14:36;;;;;;;;;60.67;41.33;;;;;;;;4987553;27;61858;-71
2024/01/14 06:17:01;;;;;;;;;62.67;38.33;;;;;;;;4999366;27;61812;-72
2024/01/14 06:19:28;;;;;;;;;57.67;42.00;;;;;;;;4992301;28;62030;-72
2024/01/14 06:21:54;;;;;;;;;53.33;43.00;;;;;;;;4979854;28;61755;-72
2024/01/14 06:24:19;;;;;;;;;63.00;46.33;;;;;;;;4980807;28;62134;-72
2024/01/14 06:26:44;;;;;;;;;60.00;47.67;;;;;;;;4993424;27;62276;-72
2024/01/14 06:29:10;;;;;;;;;68.33;44.67;;;;;;;;5000845;27;62002;-72
2024/01/14 06:31:35;;;;;;;;;50.33;36.00;;;;;;;;4990954;27;62184;-72
2024/01/14 06:34:00;;;;;;;;;54.67;42.00;;;;;;;;4980874;28;62046;-72
2024/01/14 06:36:26;;;;;;;;;61.33;45.33;;;;;;;;4980995;28;61881;-72
2024/01/14 06:38:51;;;;;;;;;52.67;42.67;;;;;;;;4981499;28;61954;-71
2024/01/14 06:41:19;;;;;;;;;60.00;44.33;;;;;;;;4980233;28;63012;-72
2024/01/14 06:43:45;;;;;;;;;69.67;49.67;;;;;;;;4974832;28;61736;-72
2024/01/14 06:46:10;;;;;;;;;64.00;36.33;;;;;;;;4961515;28;61933;-72
2024/01/14 06:48:36;;;;;;;;;55.33;42.00;;;;;;;;4961664;28;62063;-72
2024/01/14 06:51:02;;;;;;;;;53.33;44.33;;;;;;;;4960344;28;62534;-72
2024/01/14 06:53:27;;;;;;;;;79.00;46.67;;;;;;;;4980636;28;62046;-72
2024/01/14 06:55:52;;;;;;;;;54.33;33.00;;;;;;;;4980675;28;62269;-72
2024/01/14 06:58:17;;;;;;;;;55.00;44.33;;;;;;;;4979922;28;61918;-72
2024/01/14 07:00:44;;;;;;;;;59.33;44.33;;;;;;;;4992401;28;64687;-73
2024/01/14 07:03:09;;;;;;;;;66.33;45.00;;;;;;;;5052661;28;61805;-73
2024/01/14 07:05:34;;;;;;;;;58.67;40.00;;;;;;;;4979273;28;61825;-73
2024/01/14 07:08:00;;;;;;;;;52.33;33.67;;;;;;;;4979771;28;62214;-73
2024/01/14 07:10:25;;;;;;;;;63.33;43.67;;;;;;;;4978136;28;63684;-73
2024/01/14 07:12:50;;;;;;;;;66.33;44.67;;;;;;;;4979853;28;61761;-73
2024/01/14 07:15:15;;;;;;;;;72.33;49.00;;;;;;;;4979243;28;61984;-74
2024/01/14 07:17:41;;;;;;;;;59.33;46.67;;;;;;;;4996151;28;61845;-73
2024/01/14 07:20:06;;;;;;;;;58.00;41.67;;;;;;;;5014235;27;62759;-73
2024/01/14 07:22:31;;;;;;;;;65.67;42.00;;;;;;;;5017552;27;62260;-73
2024/01/14 07:24:56;;;;;;;;;68.33;46.00;;;;;;;;4980800;28;61865;-74
2024/01/14 07:27:21;;;;;;;;;64.00;43.67;;;;;;;;4978375;28;61850;-74
2024/01/14 07:29:47;;;;;;;;;67.33;47.33;;;;;;;;4979712;28;61893;-73
2024/01/14 07:32:12;;;;;;;;;61.00;42.67;;;;;;;;4980050;28;61913;-74
2024/01/14 07:34:38;;;;;;;;;67.67;46.00;;;;;;;;4966716;28;62369;-75
2024/01/14 07:37:03;;;;;;;;;48.00;40.67;;;;;;;;4959667;28;62565;-74
2024/01/14 07:39:29;;;;;;;;;76.67;52.00;;;;;;;;4960348;28;61916;-73
2024/01/14 07:41:54;;;;;;;;;66.33;47.00;;;;;;;;4966163;28;62005;-73
2024/01/14 07:44:19;;;;;;;;;53.67;39.33;;;;;;;;4980260;28;61637;-73
2024/01/14 07:46:45;;;;;;;;;58.00;46.00;;;;;;;;4979035;28;61725;-73
2024/01/14 07:49:10;;;;;;;;;43.67;26.67;;;;;;;;4979689;28;62735;-73
2024/01/14 07:51:35;;;;;;;;;46.67;34.67;;;;;;;;4979081;28;61714;-74
2024/01/14 07:54:01;;;;;;;;;71.00;49.67;;;;;;;;4980294;28;62030;-73
2024/01/14 07:56:26;;;;;;;;;67.33;44.33;;;;;;;;4968276;28;61695;-73
2024/01/14 07:58:51;;;;;;;;;58.00;41.33;;;;;;;;4960077;28;62629;-73
2024/01/14 08:01:17;;;;;;;;;67.00;44.33;;;;;;;;4993900;28;61724;-75
2024/01/14 08:03:42;;;;;;;;;61.33;43.67;;;;;;;;5040497;28;62019;-75
2024/01/14 08:06:07;;;;;;;;;58.33;41.33;;;;;;;;4978851;28;61694;-74
2024/01/14 08:08:32;;;;;;;;;61.00;42.33;;;;;;;;4979090;28;62631;-73
2024/01/14 08:10:58;;;;;;;;;64.00;48.00;;;;;;;;4979272;28;61926;-74
2024/01/14 08:13:23;;;;;;;;;59.33;45.67;;;;;;;;4979464;28;62320;-73
2024/01/14 08:15:48;;;;;;;;;63.33;42.33;;;;;;;;4979531;28;61983;-73
2024/01/14 08:18:14;;;;;;;;;56.67;45.00;;;;;;;;4977908;28;63647;-73
2024/01/14 08:20:39;;;;;;;;;63.00;42.00;;;;;;;;4976603;28;62288;-74
2024/01/14 08:23:05;;;;;;;;;63.33;41.33;;;;;;;;4989189;28;61864;-73
2024/01/14 08:25:30;;;;;;;;;66.67;47.67;;;;;;;;4999265;27;62084;-74
2024/01/14 08:27:56;;;;;;;;;58.33;42.33;;;;;;;;4991796;28;62059;-74
2024/01/14 08:30:21;;;;;;;;;68.67;52.00;;;;;;;;4999157;28;61826;-73
2024/01/14 08:32:46;;;;;;;;;59.00;47.33;;;;;;;;4982351;28;61924;-74
2024/01/14 08:35:11;;;;;;;;;70.33;45.00;;;;;;;;4981078;28;62100;-73
2024/01/14 08:37:37;;;;;;;;;73.67;48.00;;;;;;;;4979712;28;64967;-74
2024/01/14 08:40:02;;;;;;;;;58.00;45.33;;;;;;;;4981362;28;61695;-74
2024/01/14 08:42:28;;;;;;;;;60.33;45.33;;;;;;;;4982118;28;61839;-74
2024/01/14 08:44:53;;;;;;;;;64.33;44.67;;;;;;;;4982484;28;62335;-74
2024/01/14 08:47:19;;;;;;;;;67.00;47.33;;;;;;;;4981613;28;61964;-73
2024/01/14 08:49:45;;;;;;;;;67.67;51.67;;;;;;;;4982792;28;61768;-73
2024/01/14 08:52:11;;;;;;;;;72.00;49.00;;;;;;;;4980096;28;62174;-74
2024/01/14 08:54:36;;;;;;;;;63.67;49.67;;;;;;;;4982242;28;62092;-74
2024/01/14 08:57:02;;;;;;;;;82.67;45.67;;;;;;;;4979952;28;63505;-73
2024/01/14 08:59:27;;;;;;;;;51.33;37.33;;;;;;;;4981785;28;61987;-73
2024/01/14 09:01:52;;;;;;;;;59.33;46.00;;;;;;;;4981069;28;62029;-73
2024/01/14 09:04:18;;;;;;;;;50.67;44.00;;;;;;;;4981001;28;61727;-73
2024/01/14 09:06:43;;;;;;;;;50.67;40.00;;;;;;;;4980123;28;61939;-74
2024/01/14 09:09:08;;;;;;;;;64.33;37.33;;;;;;;;4978940;28;61787;-73
2024/01/14 09:11:34;;;;;;;;;64.33;47.00;;;;;;;;4981719;28;61684;-73
2024/01/14 09:13:59;;;;;;;;;72.67;49.00;;;;;;;;4981457;28;62074;-73
2024/01/14 09:16:26;;;;;;;;;73.67;51.67;;;;;;;;4979507;28;63978;-73
2024/01/14 09:18:52;;;;;;;;;59.67;43.33;;;;;;;;4997558;28;61775;-73
2024/01/14 09:21:17;;;;;;;;;77.33;52.67;;;;;;;;4980609;28;62283;-73
2024/01/14 09:23:42;;;;;;;;;63.67;49.00;;;;;;;;4981900;28;61943;-73
2024/01/14 09:26:07;;;;;;;;;68.67;49.00;;;;;;;;4978946;28;63525;-74
2024/01/14 09:28:33;;;;;;;;;63.00;42.33;;;;;;;;4980803;28;61936;-73
2024/01/14 09:30:58;;;;;;;;;69.00;48.33;;;;;;;;4980486;28;62032;-73
2024/01/14 09:33:23;;;;;;;;;38.67;28.00;;;;;;;;4980284;28;61963;-76
2024/01/14 09:35:48;;;;;;;;;66.00;43.67;;;;;;;;4969687;28;63128;-73
2024/01/14 09:38:14;;;;;;;;;72.67;51.00;;;;;;;;4969649;28;61928;-72
2024/01/14 09:40:40;;;;;;;;;82.67;60.00;;;;;;;;4970182;28;61861;-74
2024/01/14 09:43:08;;;;;;;;;76.00;48.00;;;;;;;;4970937;28;62348;-73
2024/01/14 09:45:39;;;;;;;;;48.00;43.33;;;;;;;;4979522;28;61794;-73
2024/01/14 09:48:04;;;;;;;;;64.67;48.00;;;;;;;;4979818;28;61810;-73
2024/01/14 09:50:29;;;;;;;;;66.33;48.33;;;;;;;;4979897;28;62289;-73
2024/01/14 09:52:57;;;;;;;;;61.00;46.33;;;;;;;;4978391;28;62140;-73
2024/01/14 09:55:24;;;;;;;;;78.67;51.33;;;;;;;;4977796;28;61900;-73
2024/01/14 09:57:51;;;;;;;;;62.67;44.00;;;;;;;;4979090;28;61966;-74
2024/01/14 10:00:19;;;;;;;;;68.00;45.00;;;;;;;;4979222;28;61768;-74
2024/01/14 10:02:44;;;;;;;;;63.00;49.00;;;;;;;;4980851;28;61929;-74
2024/01/14 10:05:10;;;;;;;;;66.00;42.00;;;;;;;;4979217;28;61765;-73
2024/01/14 10:07:35;;;;;;;;;65.67;45.33;;;;;;;;4981766;28;61656;-74
2024/01/14 10:10:00;;;;;;;;;72.33;46.33;;;;;;;;4979646;28;61896;-73
2024/01/14 10:12:28;;;;;;;;;71.33;51.67;;;;;;;;4992713;28;61714;-73
2024/01/14 10:15:00;;;;;;;;;75.00;48.33;;;;;;;;5000109;27;61972;-73
2024/01/14 10:17:26;;;;;;;;;79.00;52.67;;;;;;;;5000315;27;61724;-73
2024/01/14 10:19:54;;;;;;;;;72.67;48.00;;;;;;;;4990393;28;61893;-74
2024/01/14 10:22:21;;;;;;;;;62.67;43.00;;;;;;;;4984970;27;61912;-73
2024/01/14 10:24:51;;;;;;;;;54.67;42.67;;;;;;;;4999722;27;61746;-73
2024/01/14 10:27:16;;;;;;;;;61.00;44.33;;;;;;;;4999442;28;62174;-74
2024/01/14 10:29:42;;;;;;;;;71.33;45.67;;;;;;;;5001040;28;62109;-74
2024/01/14 10:32:08;;;;;;;;;72.33;48.33;;;;;;;;5000926;27;61840;-73
2024/01/14 10:34:33;;;;;;;;;60.00;47.33;;;;;;;;4997529;27;62044;-73
2024/01/14 10:37:01;;;;;;;;;72.33;50.00;;;;;;;;5000849;27;61821;-73
2024/01/14 10:39:30;;;;;;;;;67.33;48.67;;;;;;;;4999180;27;61715;-73
2024/01/14 10:41:55;;;;;;;;;62.00;41.33;;;;;;;;4999842;27;62123;-74
2024/01/14 10:44:21;;;;;;;;;65.00;46.00;;;;;;;;4997518;27;63682;-74
2024/01/14 10:46:48;;;;;;;;;61.67;42.67;;;;;;;;4999386;27;61787;-75
2024/01/14 10:49:15;;;;;;;;;68.00;46.33;;;;;;;;4995055;27;61861;-75
2024/01/14 10:51:42;;;;;;;;;63.00;43.67;;;;;;;;4997781;27;61972;-75
2024/01/14 10:54:13;;;;;;;;;69.00;48.00;;;;;;;;4998427;27;62855;-74
2024/01/14 10:56:40;;;;;;;;;68.33;49.00;;;;;;;;4998131;27;62083;-75
2024/01/14 10:59:07;;;;;;;;;67.00;46.00;;;;;;;;4998144;28;61851;-75
2024/01/14 11:01:33;;;;;;;;;71.33;47.67;;;;;;;;4994255;27;61782;-74
2024/01/14 11:04:00;;;;;;;;;60.67;42.33;;;;;;;;4997393;27;61747;-75
2024/01/14 11:06:25;;;;;;;;;67.67;46.67;;;;;;;;4994036;27;61903;-75
2024/01/14 11:08:53;;;;;;;;;54.33;39.67;;;;;;;;5006436;27;61799;-74
2024/01/14 11:11:22;;;;;;;;;63.33;43.33;;;;;;;;4986802;28;61759;-76
2024/01/14 11:13:52;;;;;;;;;52.00;42.00;;;;;;;;4980477;27;61868;-76
2024/01/14 11:16:28;;;;;;;;;71.00;49.67;;;;;;;;4980392;28;61759;-75
2024/01/14 11:19:21;;;;;;;;;65.67;43.33;;;;;;;;4979845;28;61844;-74
2024/01/14 11:22:05;;;;;;;;;60.33;43.33;;;;;;;;4980051;28;62157;-73
2024/01/14 11:24:31;;;;;;;;;72.67;45.67;;;;;;;;4981680;27;62017;-75
2024/01/14 11:26:57;;;;;;;;;61.67;45.33;;;;;;;;4987844;28;61938;-73
2024/01/14 11:29:31;;;;;;;;;55.67;36.67;;;;;;;;4989103;27;62267;-73
2024/01/14 11:32:03;;;;;;;;;59.67;40.67;;;;;;;;4986683;27;62133;-72
2024/01/14 11:34:59;;;;;;;;;52.67;39.33;;;;;;;;4981009;28;61935;-73
2024/01/14 11:37:33;;;;;;;;;52.33;43.67;;;;;;;;4991730;28;62100;-74
2024/01/14 11:40:09;;;;;;;;;60.00;42.33;;;;;;;;4981349;28;61943;-73
2024/01/14 11:42:34;;;;;;;;;48.00;38.33;;;;;;;;4988280;27;61829;-74
2024/01/14 11:45:00;;;;;;;;;73.33;49.33;;;;;;;;4987818;28;64703;-72
2024/01/14 11:47:40;;;;;;;;;62.33;45.33;;;;;;;;4988475;28;61861;-73
2024/01/14 11:50:07;;;;;;;;;59.33;47.33;;;;;;;;4988513;27;62148;-73
2024/01/14 11:52:35;;;;;;;;;70.33;48.00;;;;;;;;4995838;28;62128;-73
2024/01/14 11:55:03;;;;;;;;;65.67;45.33;;;;;;;;4996288;28;63635;-73
2024/01/14 11:57:29;;;;;;;;;63.00;45.50;;;;;;;;4998888;28;61809;-73
2024/01/14 11:59:54;;;;;;;;;67.00;44.33;;;;;;;;4997671;27;62175;-73
2024/01/14 12:02:20;;;;;;;;;75.33;50.00;;;;;;;;4997235;27;61965;-73
2024/01/14 12:04:45;;;;;;;;;65.00;44.33;;;;;;;;4996108;28;62707;-73
2024/01/14 12:07:10;;;;;;;;;65.00;44.00;;;;;;;;4996564;28;61715;-73
2024/01/14 12:09:35;;;;;;;;;63.67;46.00;;;;;;;;4997807;28;61906;-72
2024/01/14 12:12:04;;;;;;;;;58.33;38.33;;;;;;;;4994376;28;61787;-72
2024/01/14 12:14:31;;;;;;;;;49.67;42.33;;;;;;;;4985835;28;64872;-73
2024/01/14 12:16:57;;;;;;;;;65.00;44.33;;;;;;;;4988420;28;61755;-72
2024/01/14 12:19:23;;;;;;;;;55.33;42.00;;;;;;;;4986871;28;61942;-72
2024/01/14 12:21:48;;;;;;;;;62.33;44.33;;;;;;;;4986238;28;61864;-72
2024/01/14 12:24:13;;;;;;;;;56.00;41.67;;;;;;;;4987863;28;61843;-72
2024/01/14 12:26:41;;;;;;;;;53.00;43.25;;;;;;;;4993801;28;63226;-73
2024/01/14 12:29:06;;;;;;;;;58.33;44.33;;;;;;;;4997846;28;62155;-73
2024/01/14 12:31:32;;;;;;;;;61.33;44.00;;;;;;;;4992224;27;61940;-72
2024/01/14 12:34:03;;;;;;;;;58.00;41.33;;;;;;;;4979075;28;62087;-72
2024/01/14 12:36:28;;;;;;;;;63.00;46.00;;;;;;;;4978394;28;61984;-72
2024/01/14 12:38:53;;;;;;;;;49.75;43.50;;;;;;;;4978915;28;61774;-72
2024/01/14 12:41:18;;;;;;;;;64.00;39.67;;;;;;;;4978812;28;61952;-72
2024/01/14 12:43:44;;;;;;;;;58.00;41.33;;;;;;;;4978169;28;61896;-72
2024/01/14 12:46:09;;;;;;;;;61.00;44.67;;;;;;;;4978156;28;62043;-72
2024/01/14 12:48:34;;;;;;;;;57.00;40.67;;;;;;;;4979562;28;62043;-72
2024/01/14 12:51:00;;;;;;;;;57.00;42.00;;;;;;;;4978478;28;61880;-72
2024/01/14 12:53:29;;;;;;;;;50.33;41.33;;;;;;;;4978222;28;61763;-72
2024/01/14 12:56:10;;;;;;;;;55.67;41.00;;;;;;;;4978945;28;61812;-72
2024/01/14 12:58:36;;;;;;;;;60.75;37.25;;;;;;;;4978909;28;61902;-72
2024/01/14 13:01:01;;;;;;;;;56.33;44.00;;;;;;;;4978859;28;61757;-72
2024/01/14 13:03:26;;;;;;;;;49.33;37.00;;;;;;;;4978193;28;63257;-72
2024/01/14 13:05:52;;;;;;;;;55.75;38.50;;;;;;;;4976647;28;62203;-73
2024/01/14 13:08:17;;;;;;;;;62.33;40.33;;;;;;;;4978234;28;62227;-72
2024/01/14 13:10:42;;;;;;;;;41.25;33.50;;;;;;;;4979958;28;62039;-73
2024/01/14 13:13:08;;;;;;;;;64.00;45.00;;;;;;;;4978037;28;61829;-72
2024/01/14 13:15:34;;;;;;;;;61.67;43.00;;;;;;;;4979153;28;62060;-73
2024/01/14 13:18:00;;;;;;;;;62.00;45.75;;;;;;;;4977975;28;62300;-73
2024/01/14 13:20:25;;;;;;;;;60.67;41.67;;;;;;;;4982653;28;61866;-72
2024/01/14 13:22:50;;;;;;;;;64.00;41.00;;;;;;;;4978796;28;61956;-72
2024/01/14 13:25:15;;;;;;;;;61.33;43.33;;;;;;;;4987893;27;62071;-75
2024/01/14 13:27:41;;;;;;;;;60.75;39.25;;;;;;;;4988212;28;61973;-74
2024/01/14 13:30:08;;;;;;;;;51.50;40.75;;;;;;;;4987195;28;61925;-75
2024/01/14 13:32:36;;;;;;;;;53.00;42.33;;;;;;;;4984038;27;62460;-74
2024/01/14 13:35:02;;;;;;;;;57.50;41.00;;;;;;;;4979817;28;61915;-74
2024/01/14 13:37:27;;;;;;;;;63.25;41.75;;;;;;;;4981725;28;61908;-75
2024/01/14 13:39:53;;;;;;;;;60.50;41.50;;;;;;;;4983409;28;62015;-76
2024/01/14 13:42:18;;;;;;;;;50.50;37.25;;;;;;;;4987133;27;62337;-75
2024/01/14 13:44:43;;;;;;;;;65.25;42.25;;;;;;;;4998173;28;61869;-77
2024/01/14 13:47:09;;;;;;;;;64.25;39.25;;;;;;;;4996871;28;61955;-77
2024/01/14 13:49:34;;;;;;;;;60.75;42.00;;;;;;;;4999568;27;61955;-78
2024/01/14 13:52:00;;;;;;;;;47.75;31.00;;;;;;;;4998109;27;63951;-74
2024/01/14 13:54:25;;;;;;;;;54.75;38.25;;;;;;;;4995428;27;62110;-76
2024/01/14 13:56:54;;;;;;;;;60.00;42.67;;;;;;;;4991896;27;62079;-75
2024/01/14 13:59:19;;;;;;;;;56.67;45.33;;;;;;;;4986139;28;61823;-74
2024/01/14 14:01:44;;;;;;;;;54.33;45.00;;;;;;;;4978518;28;63645;-73
2024/01/14 14:04:10;;;;;;;;;45.67;40.00;;;;;;;;4995625;28;61996;-73
2024/01/14 14:06:35;;;;;;;;;52.33;43.00;;;;;;;;5000134;27;62514;-75
2024/01/14 14:09:03;;;;;;;;;51.67;41.00;;;;;;;;4999445;28;62146;-78